Time,TemperatureF,DewpointF,PressureIn,WindDirection,WindDirectionDegrees,WindSpeedMPH,WindSpeedGustMPH,Humidity,HourlyPrecipIn,Conditions,Clouds,dailyrainin,SolarRadiationWatts/m^2,SoftwareType,DateUTC
2013-04-06 00:04:00,33.0,14.0,-100.00,WNW,288,3.0,15.0,45,0.00,,,0.00,0.000000,,2013-04-06 04:04:00,
2013-04-06 00:33:00,32.0,15.0,-100.00,NW,304,4.0,10.0,50,0.00,,,0.00,0.000000,,2013-04-06 04:33:00,
2013-04-06 00:43:00,32.0,15.0,-100.00,NW,304,4.0,10.0,50,0.00,,,0.00,0.000000,,2013-04-06 04:43:00,
2013-04-06 00:53:00,32.0,15.0,-100.00,NW,304,4.0,10.0,50,0.00,,,0.00,0.000000,,2013-04-06 04:53:00,
2013-04-06 01:02:00,32.0,15.0,-100.00,NW,304,4.0,10.0,50,0.00,,,0.00,0.000000,,2013-04-06 05:02:00,
2013-04-06 01:43:00,31.0,16.0,-100.00,NW,309,4.0,8.0,54,0.00,,,0.00,0.000000,,2013-04-06 05:43:00,
2013-04-06 01:52:00,31.0,16.0,-100.00,NW,309,4.0,8.0,54,0.00,,,0.00,0.000000,,2013-04-06 05:52:00,
2013-04-06 02:03:00,31.0,16.0,-100.00,NW,309,4.0,8.0,54,0.00,,,0.00,0.000000,,2013-04-06 06:03:00,
2013-04-06 02:33:00,29.0,14.0,-100.00,WNW,294,3.0,10.0,54,0.00,,,-99.99,0.000000,,2013-04-06 06:33:00,
2013-04-06 02:43:00,29.0,14.0,-100.00,WNW,294,3.0,10.0,54,0.00,,,-99.99,0.000000,,2013-04-06 06:43:00,
2013-04-06 02:53:00,29.0,14.0,-100.00,WNW,294,3.0,10.0,54,0.00,,,-99.99,0.000000,,2013-04-06 06:53:00,
2013-04-06 03:04:00,29.0,14.0,-100.00,WNW,294,3.0,10.0,54,0.00,,,-99.99,0.000000,,2013-04-06 07:04:00,
2013-04-06 03:34:00,28.0,16.0,-100.00,NW,312,3.0,9.0,59,0.00,,,0.00,0.000000,,2013-04-06 07:34:00,
2013-04-06 03:45:00,28.0,16.0,-100.00,NW,312,3.0,9.0,59,0.00,,,0.00,0.000000,,2013-04-06 07:45:00,
2013-04-06 03:53:00,28.0,16.0,-100.00,NW,312,3.0,9.0,59,0.00,,,0.00,0.000000,,2013-04-06 07:53:00,
2013-04-06 04:02:00,28.0,16.0,-100.00,NW,312,3.0,9.0,59,0.00,,,0.00,0.000000,,2013-04-06 08:02:00,
2013-04-06 04:32:00,29.0,16.0,-100.00,NNW,343,4.0,10.0,58,0.00,,,0.00,0.000000,,2013-04-06 08:32:00,
2013-04-06 04:43:00,29.0,16.0,-100.00,NNW,343,4.0,10.0,58,0.00,,,0.00,0.000000,,2013-04-06 08:43:00,
2013-04-06 04:52:00,29.0,16.0,-100.00,NNW,343,4.0,10.0,58,0.00,,,0.00,0.000000,,2013-04-06 08:52:00,
2013-04-06 05:02:00,29.0,16.0,-100.00,NNW,343,4.0,10.0,58,0.00,,,0.00,0.000000,,2013-04-06 09:02:00,
2013-04-06 05:33:00,27.0,16.0,-100.00,North,356,3.0,11.0,62,0.00,,,-99.99,0.000000,,2013-04-06 09:33:00,
2013-04-06 05:43:00,27.0,16.0,-100.00,North,356,3.0,11.0,62,0.00,,,-99.99,0.000000,,2013-04-06 09:43:00,
2013-04-06 05:53:00,27.0,16.0,-100.00,North,356,3.0,11.0,62,0.00,,,-99.99,0.000000,,2013-04-06 09:53:00,
2013-04-06 06:03:00,27.0,16.0,-100.00,North,356,3.0,11.0,62,0.00,,,-99.99,0.000000,,2013-04-06 10:03:00,
2013-04-06 06:34:00,26.0,14.0,-100.00,NNW,342,3.0,10.0,60,0.00,,,0.00,0.000000,,2013-04-06 10:34:00,
2013-04-06 06:43:00,26.0,14.0,-100.00,NNW,342,3.0,10.0,60,0.00,,,0.00,0.000000,,2013-04-06 10:43:00,
2013-04-06 06:53:00,26.0,14.0,-100.00,NNW,342,3.0,10.0,60,0.00,,,0.00,0.000000,,2013-04-06 10:53:00,
2013-04-06 07:03:00,26.0,14.0,-100.00,NNW,342,3.0,10.0,60,0.00,,,0.00,0.000000,,2013-04-06 11:03:00,
2013-04-06 07:33:00,25.0,10.0,-100.00,North,8,4.0,9.0,53,0.00,,,0.00,4.000000,,2013-04-06 11:33:00,
2013-04-06 07:43:00,25.0,10.0,-100.00,North,8,4.0,9.0,53,0.00,,,0.00,4.000000,,2013-04-06 11:43:00,
2013-04-06 07:53:00,25.0,10.0,-100.00,North,8,4.0,9.0,53,0.00,,,0.00,4.000000,,2013-04-06 11:53:00,
2013-04-06 08:02:00,25.0,10.0,-100.00,North,8,4.0,9.0,53,0.00,,,0.00,4.000000,,2013-04-06 12:02:00,
2013-04-06 08:33:00,28.0,12.0,-100.00,NNW,345,5.0,10.0,51,0.00,,,0.00,50.000000,,2013-04-06 12:33:00,
2013-04-06 08:44:00,28.0,12.0,-100.00,NNW,345,5.0,10.0,51,0.00,,,0.00,50.000000,,2013-04-06 12:44:00,
2013-04-06 08:53:00,28.0,12.0,-100.00,NNW,345,5.0,10.0,51,0.00,,,0.00,50.000000,,2013-04-06 12:53:00,
2013-04-06 09:03:00,28.0,12.0,-100.00,NNW,345,5.0,10.0,51,0.00,,,0.00,50.000000,,2013-04-06 13:03:00,
2013-04-06 09:33:00,33.0,12.0,-100.00,NNE,29,4.0,11.0,41,0.00,,,0.00,287.000000,,2013-04-06 13:33:00,
2013-04-06 09:43:00,33.0,12.0,-100.00,NNE,29,4.0,11.0,41,0.00,,,0.00,287.000000,,2013-04-06 13:43:00,
2013-04-06 09:54:00,33.0,12.0,-100.00,NNE,29,4.0,11.0,41,0.00,,,0.00,287.000000,,2013-04-06 13:54:00,
2013-04-06 10:05:00,33.0,12.0,-100.00,NNE,29,4.0,11.0,41,0.00,,,0.00,287.000000,,2013-04-06 14:05:00,
2013-04-06 10:33:00,35.0,11.0,-100.00,NNW,344,5.0,11.0,36,0.00,,,0.00,500.000000,,2013-04-06 14:33:00,
2013-04-06 10:43:00,35.0,11.0,-100.00,NNW,344,5.0,11.0,36,0.00,,,0.00,500.000000,,2013-04-06 14:43:00,
2013-04-06 10:53:00,35.0,11.0,-100.00,NNW,344,5.0,11.0,36,0.00,,,0.00,500.000000,,2013-04-06 14:53:00,
2013-04-06 11:02:00,35.0,11.0,-100.00,NNW,344,5.0,11.0,36,0.00,,,0.00,500.000000,,2013-04-06 15:02:00,
2013-04-06 11:33:00,37.0,8.0,-100.00,NNE,31,6.0,10.0,30,0.00,,,0.00,666.000000,,2013-04-06 15:33:00,
2013-04-06 11:43:00,37.0,8.0,-100.00,NNE,31,6.0,10.0,30,0.00,,,0.00,666.000000,,2013-04-06 15:43:00,
2013-04-06 11:54:00,37.0,8.0,-100.00,NNE,31,6.0,10.0,30,0.00,,,0.00,666.000000,,2013-04-06 15:54:00,
2013-04-06 12:05:00,37.0,8.0,-100.00,NNE,31,6.0,10.0,30,0.00,,,0.00,666.000000,,2013-04-06 16:05:00,
2013-04-06 12:33:00,40.0,8.0,-100.00,NNE,23,6.0,10.0,26,0.00,,,0.00,786.000000,,2013-04-06 16:33:00,
2013-04-06 12:43:00,40.0,8.0,-100.00,NNE,23,6.0,10.0,26,0.00,,,0.00,786.000000,,2013-04-06 16:43:00,
2013-04-06 12:53:00,40.0,8.0,-100.00,NNE,23,6.0,10.0,26,0.00,,,0.00,786.000000,,2013-04-06 16:53:00,
2013-04-06 13:03:00,40.0,8.0,-100.00,NNE,23,6.0,10.0,26,0.00,,,0.00,786.000000,,2013-04-06 17:03:00,
2013-04-06 13:33:00,44.0,8.0,-100.00,SSW,196,4.0,9.0,22,0.00,,,0.00,853.000000,,2013-04-06 17:33:00,
2013-04-06 13:43:00,44.0,8.0,-100.00,SSW,196,4.0,9.0,22,0.00,,,0.00,853.000000,,2013-04-06 17:43:00,
2013-04-06 13:53:00,44.0,8.0,-100.00,SSW,196,4.0,9.0,22,0.00,,,0.00,853.000000,,2013-04-06 17:53:00,
2013-04-06 14:03:00,44.0,8.0,-100.00,SSW,196,4.0,9.0,22,0.00,,,0.00,853.000000,,2013-04-06 18:03:00,
2013-04-06 14:33:00,48.0,7.0,-100.00,South,175,5.0,10.0,18,0.00,,,0.00,861.000000,,2013-04-06 18:33:00,
2013-04-06 14:43:00,48.0,7.0,-100.00,South,175,5.0,10.0,18,0.00,,,0.00,861.000000,,2013-04-06 18:43:00,
2013-04-06 14:52:00,48.0,7.0,-100.00,South,175,5.0,10.0,18,0.00,,,0.00,861.000000,,2013-04-06 18:52:00,
2013-04-06 15:03:00,48.0,7.0,-100.00,South,175,5.0,10.0,18,0.00,,,0.00,861.000000,,2013-04-06 19:03:00,
2013-04-06 15:33:00,48.0,10.0,-100.00,South,184,5.0,11.0,21,0.00,,,0.00,806.000000,,2013-04-06 19:33:00,
2013-04-06 15:42:00,48.0,10.0,-100.00,South,184,5.0,11.0,21,0.00,,,0.00,806.000000,,2013-04-06 19:42:00,
2013-04-06 15:54:00,48.0,10.0,-100.00,South,184,5.0,11.0,21,0.00,,,0.00,806.000000,,2013-04-06 19:54:00,
2013-04-06 16:03:00,48.0,10.0,-100.00,South,184,5.0,11.0,21,0.00,,,0.00,806.000000,,2013-04-06 20:03:00,
2013-04-06 16:32:00,49.0,10.0,-100.00,SSW,204,6.0,11.0,20,0.00,,,0.00,672.000000,,2013-04-06 20:32:00,
2013-04-06 16:42:00,49.0,10.0,-100.00,SSW,204,6.0,11.0,20,0.00,,,0.00,672.000000,,2013-04-06 20:42:00,
2013-04-06 16:53:00,49.0,10.0,-100.00,SSW,204,6.0,11.0,20,0.00,,,0.00,672.000000,,2013-04-06 20:53:00,
2013-04-06 17:02:00,49.0,10.0,-100.00,SSW,204,6.0,11.0,20,0.00,,,0.00,672.000000,,2013-04-06 21:02:00,
2013-04-06 17:33:00,49.0,11.0,-100.00,SSE,160,5.0,11.0,21,0.00,,,0.00,531.000000,,2013-04-06 21:33:00,
2013-04-06 17:43:00,49.0,11.0,-100.00,SSE,160,5.0,11.0,21,0.00,,,0.00,531.000000,,2013-04-06 21:43:00,
2013-04-06 17:53:00,49.0,11.0,-100.00,SSE,160,5.0,11.0,21,0.00,,,0.00,531.000000,,2013-04-06 21:53:00,
2013-04-06 18:03:00,49.0,11.0,-100.00,SSE,160,5.0,11.0,21,0.00,,,0.00,531.000000,,2013-04-06 22:03:00,
2013-04-06 18:35:00,47.0,7.0,-100.00,SE,143,5.0,10.0,19,0.00,,,0.00,314.000000,,2013-04-06 22:35:00,
2013-04-06 18:44:00,47.0,7.0,-100.00,SE,143,5.0,10.0,19,0.00,,,0.00,314.000000,,2013-04-06 22:44:00,
2013-04-06 18:55:00,47.0,7.0,-100.00,SE,143,5.0,10.0,19,0.00,,,0.00,314.000000,,2013-04-06 22:55:00,
2013-04-06 19:03:00,47.0,7.0,-100.00,SE,143,5.0,10.0,19,0.00,,,0.00,314.000000,,2013-04-06 23:03:00,
2013-04-06 19:34:00,44.0,9.0,-100.00,SSE,147,3.0,8.0,23,0.00,,,0.00,88.000000,,2013-04-06 23:34:00,
2013-04-06 19:43:00,44.0,9.0,-100.00,SSE,147,3.0,8.0,23,0.00,,,0.00,88.000000,,2013-04-06 23:43:00,
2013-04-06 19:53:00,44.0,9.0,-100.00,SSE,147,3.0,8.0,23,0.00,,,0.00,88.000000,,2013-04-06 23:53:00,
2013-04-06 20:02:00,44.0,9.0,-100.00,SSE,147,3.0,8.0,23,0.00,,,0.00,88.000000,,2013-04-07 00:02:00,
2013-04-06 20:33:00,40.0,10.0,-100.00,ESE,114,2.0,6.0,28,0.00,,,0.00,11.000000,,2013-04-07 00:33:00,
2013-04-06 20:44:00,40.0,10.0,-100.00,ESE,114,2.0,6.0,28,0.00,,,0.00,11.000000,,2013-04-07 00:44:00,
2013-04-06 20:53:00,40.0,10.0,-100.00,ESE,114,2.0,6.0,28,0.00,,,0.00,11.000000,,2013-04-07 00:53:00,
2013-04-06 21:02:00,40.0,10.0,-100.00,ESE,114,2.0,6.0,28,0.00,,,0.00,11.000000,,2013-04-07 01:02:00,
2013-04-06 21:33:00,39.0,7.0,-100.00,SSE,149,3.0,6.0,26,0.00,,,0.00,0.000000,,2013-04-07 01:33:00,
2013-04-06 21:43:00,39.0,7.0,-100.00,SSE,149,3.0,6.0,26,0.00,,,0.00,0.000000,,2013-04-07 01:43:00,
2013-04-06 21:53:00,39.0,7.0,-100.00,SSE,149,3.0,6.0,26,0.00,,,0.00,0.000000,,2013-04-07 01:53:00,
2013-04-06 22:03:00,39.0,7.0,-100.00,SSE,149,3.0,6.0,26,0.00,,,0.00,0.000000,,2013-04-07 02:03:00,
2013-04-06 22:33:00,41.0,9.0,-100.00,SSE,148,3.0,9.0,26,0.00,,,0.00,0.000000,,2013-04-07 02:33:00,
2013-04-06 22:43:00,41.0,9.0,-100.00,SSE,148,3.0,9.0,26,0.00,,,0.00,0.000000,,2013-04-07 02:43:00,
2013-04-06 22:52:00,41.0,9.0,-100.00,SSE,148,3.0,9.0,26,0.00,,,0.00,0.000000,,2013-04-07 02:52:00,
2013-04-06 23:02:00,41.0,9.0,-100.00,SSE,148,3.0,9.0,26,0.00,,,0.00,0.000000,,2013-04-07 03:02:00,
2013-04-06 23:35:00,39.0,9.0,-100.00,SE,131,2.0,11.0,29,0.00,,,0.00,0.000000,,2013-04-07 03:35:00,
2013-04-06 23:44:00,39.0,9.0,-100.00,SE,131,2.0,11.0,29,0.00,,,0.00,0.000000,,2013-04-07 03:44:00,
2013-04-06 23:55:00,39.0,9.0,-100.00,SE,131,2.0,11.0,29,0.00,,,0.00,0.000000,,2013-04-07 03:55:00,